• Join FlightAware (Why Join?)
  • Login
  • US Flag 
02:44AM EDT


 

Airport Tracker/Info


-or-


 

Live Flight TrackerFlight Track Log ✈ AAL2345 ✈ 30-Apr-2013 ✈ KORD - KDFW

Flight Track Log - Related Links

Times and Time Zones

All times are in EDT time to prevent confusion due to time zone crossing. See the AAL2345 flight status page for this flight to view local times or setup timezone preferences in your user account.

Time Position Orientation Groundspeed Altitude Reporting Facility
EDT Latitude Longitude Course Direction KTS MPH feet Rate Location/Type
06:51PM 41.9333 -87.9833 207° Southwest 198 228 2,900  Level Chicago TRACON
06:52PM 41.8747 -88.0006 192° South 227 261 5,300 2,580 Climbing Chicago Center
06:53PM 41.7917 -87.9961 178° South 256 295 8,700 2,940 Climbing Chicago Center
06:54PM 41.7267 -88.0344 204° Southwest 257 296 11,400 2,160 Climbing Chicago Center
06:55PM 41.6533 -88.0681 199° South 277 319 13,200 1,500 Climbing Chicago Center
06:56PM 41.4894 -88.4856 207° Southwest  Level Estimated
06:56PM 41.5672 -88.1072 199° South 328 377 14,600  Level Chicago Center
06:57PM 41.4539 -88.1578 198° South 364 419 17,200 2,220 Climbing Chicago Center
06:58PM 41.3567 -88.2031 199° South 384 442 19,300 1,740 Climbing Chicago Center
06:59PM 41.2522 -88.2489 198° South 398 458 20,800 1,620 Climbing Chicago Center
07:00PM 41.1436 -88.2981 199° South 411 473 22,700 1,920 Climbing Chicago Center
07:01PM 41.0103 -88.3592 199° South 423 487 24,800 1,740 Climbing Chicago Center
07:02PM 40.8972 -88.4106 199° South 430 495 26,400 1,320 Climbing Chicago Center
07:03PM 40.7817 -88.4628 199° South 438 504 27,600 1,200 Climbing Chicago Center
07:04PM 40.6639 -88.5136 198° South 447 514 29,000 1,260 Climbing Chicago Center
07:05PM 40.5447 -88.5667 199° South 453 521 30,300 1,260 Climbing Chicago Center
07:06PM 40.4094 -88.6258 198° South 449 517 31,700 1,140 Climbing Chicago Center
07:07PM 40.2947 -88.6903 203° Southwest 452 520 32,700 900 Climbing Chicago Center
07:08PM 40.1978 -88.7900 218° Southwest 444 511 33,600 600 Climbing Chicago Center
07:09PM 40.0989 -88.8911 218° Southwest 443 510 34,000 180 Climbing Kansas City Center
07:10PM 40.0017 -88.9914 218° Southwest 443 510 34,000  Level Kansas City Center
07:11PM 39.9039 -89.0889 217° Southwest 442 509 34,000  Level Kansas City Center
07:12PM 39.8069 -89.1892 218° Southwest 442 509 34,000  Level Kansas City Center
07:13PM 39.7103 -89.2886 218° Southwest 442 509 34,000  Level Kansas City Center
07:14PM 39.6006 -89.3981 218° Southwest 440 506 34,000  Level Kansas City Center
07:15PM 39.5047 -89.4956 218° Southwest 439 505 34,000  Level Kansas City Center
07:16PM 39.4094 -89.5928 218° Southwest 438 504 34,000  Level Kansas City Center
07:17PM 39.3131 -89.6886 218° Southwest 437 503 34,000  Level Kansas City Center
07:19PM 39.2161 -89.7861 218° Southwest 440 506 34,000  Level Kansas City Center
07:20PM 39.1006 -89.9025 218° Southwest 442 509 34,000  Level Kansas City Center
07:21PM 39.0039 -89.9978 217° Southwest 439 505 34,000  Level Kansas City Center
07:22PM 38.9214 -90.1075 226° Southwest 434 499 34,000  Level Kansas City Center
07:23PM 38.8389 -90.2222 227° Southwest 434 499 34,000  Level Kansas City Center
07:24PM 38.7550 -90.3364 227° Southwest 437 503 34,000  Level Kansas City Center
07:25PM 38.6542 -90.4761 227° Southwest 441 507 34,000  Level Kansas City Center
07:26PM 38.5656 -90.5903 225° Southwest 452 520 34,000  Level Kansas City Center
07:27PM 38.4800 -90.7044 226° Southwest 446 513 34,000  Level Kansas City Center
07:28PM 38.4022 -90.8089 226° Southwest 449 517 34,000  Level Kansas City Center
07:29PM 38.3036 -90.9511 229° Southwest 451 519 34,000  Level Kansas City Center
07:30PM 38.2375 -91.0856 238° Southwest 449 517 34,000  Level Kansas City Center
07:31PM 38.1608 -91.2358 237° Southwest 452 520 34,000  Level Kansas City Center
07:32PM 38.0964 -91.3719 239° Southwest 450 518 34,000  Level Kansas City Center
07:33PM 38.0294 -91.5100 238° Southwest 455 524 34,000  Level Kansas City Center
07:34PM 37.9658 -91.6483 240° Southwest 453 521 34,000  Level Kansas City Center
07:35PM 37.8981 -91.7844 238° Southwest 452 520 34,000  Level Kansas City Center
07:36PM 37.8331 -91.9244 240° Southwest 455 524 34,000  Level Kansas City Center
07:37PM 37.7669 -92.0633 239° Southwest 455 524 34,000  Level Kansas City Center
07:38PM 37.6678 -92.1719 221° Southwest 452 520 34,000  Level Kansas City Center
07:39PM 37.5683 -92.2672 217° Southwest 451 519 34,000  Level Kansas City Center
07:40PM 37.4472 -92.3825 217° Southwest 451 519 34,000  Level Kansas City Center
07:41PM 37.3458 -92.4786 217° Southwest 453 521 34,000  Level Kansas City Center
07:42PM 37.2456 -92.5731 217° Southwest 450 518 34,000  Level Kansas City Center
07:43PM 37.1439 -92.6683 217° Southwest 452 520 34,000  Level Kansas City Center
07:44PM 37.0431 -92.7622 217° Southwest 450 518 34,000  Level Kansas City Center
07:45PM 36.9425 -92.8553 216° Southwest 448 516 34,000  Level Kansas City Center
07:46PM 36.8636 -92.9319 218° Southwest 462 532 34,000  Level Memphis Center
07:47PM 36.7658 -93.0272 218° Southwest 462 532 34,000  Level Memphis Center
07:48PM 36.6639 -93.1194 216° Southwest 462 532 34,000  Level Memphis Center
07:49PM 36.5639 -93.2092 216° Southwest 462 532 34,000  Level Memphis Center
07:50PM 36.4681 -93.3014 218° Southwest 457 526 34,000  Level Memphis Center
07:51PM 36.3764 -93.3806 215° Southwest 457 526 34,000  Level Memphis Center
07:52PM 36.2761 -93.4719 216° Southwest 450 518 34,000  Level Memphis Center
07:53PM 36.1781 -93.5633 217° Southwest 450 518 34,000  Level Memphis Center
07:54PM 36.0819 -93.6494 216° Southwest 445 512 34,000  Level Memphis Center
07:55PM 35.9856 -93.7406 217° Southwest 440 506 34,000  Level Memphis Center
07:56PM 35.8767 -93.8386 216° Southwest 447 514 34,000  Level Memphis Center
07:57PM 35.7803 -93.9242 216° Southwest 442 509 34,000  Level Memphis Center
07:58PM 35.6797 -94.0117 215° Southwest 442 509 34,000  Level Memphis Center
07:59PM 35.5833 -94.0994 217° Southwest 452 520 34,000  Level Memphis Center
08:00PM 35.4847 -94.1892 217° Southwest 446 513 34,000  Level Memphis Center
08:01PM 35.3861 -94.2764 216° Southwest 446 513 34,000  Level Memphis Center
08:02PM 35.2953 -94.3739 221° Southwest 440 506 34,000  Level Memphis Center
08:03PM 35.2067 -94.4714 222° Southwest 435 501 34,000  Level Memphis Center
08:04PM 35.1158 -94.5683 221° Southwest 435 501 34,000  Level Memphis Center
08:08PM 34.7667 -94.9492 222° Southwest 432 497 34,000 -120 Level Fort Worth Center
08:09PM 34.6769 -95.0450 221° Southwest 438 504 33,700 -540 Descending Fort Worth Center
08:10PM 34.5869 -95.1433 222° Southwest 438 504 33,000 -1,020 Descending Fort Worth Center
08:11PM 34.4928 -95.2442 221° Southwest 443 510 31,700 -1,380 Descending Fort Worth Center
08:12PM 34.3983 -95.3447 221° Southwest 448 516 30,300 -1,440 Descending Fort Worth Center
08:13PM 34.3019 -95.4425 220° Southwest 453 521 28,900 -1,440 Descending Fort Worth Center
08:14PM 34.2136 -95.5350 221° Southwest 447 514 27,500 -1,620 Descending Fort Worth Center
08:15PM 34.1150 -95.6400 221° Southwest 447 514 25,700 -1,800 Descending Fort Worth Center
08:16PM 34.0347 -95.7217 220° Southwest 436 502 23,900 -1,920 Descending Fort Worth Center
08:17PM 33.9483 -95.8111 221° Southwest 428 493 21,900 -2,100 Descending Fort Worth Center
08:18PM 33.8533 -95.9128 222° Southwest 423 487 19,800 -2,220 Descending Fort Worth Center
08:19PM 33.7689 -95.9967 220° Southwest 412 474 17,500 -2,100 Descending Fort Worth Center
08:20PM 33.6864 -96.0831 221° Southwest 407 468 15,600 -2,040 Descending Fort Worth Center
08:21PM 33.6036 -96.1664 220° Southwest 396 456 13,500 -1,800 Descending Fort Worth Center
08:22PM 33.5272 -96.2497 222° Southwest 383 441 12,100 -1,200 Descending Fort Worth Center
08:23PM 33.4550 -96.3353 225° Southwest 368 423 11,200 -600 Descending Fort Worth Center
08:24PM 33.3908 -96.4108 225° Southwest 345 397 11,000 -720 Descending Fort Worth Center
08:25PM 33.3331 -96.4836 226° Southwest 317 365 9,800 -1,320 Descending Fort Worth Center
08:26PM 33.2856 -96.5611 234° Southwest 307 353 8,400 -1,380 Descending Fort Worth Center
08:27PM 33.2611 -96.6508 252° West 287 330 7,100 -1,500 Descending Fort Worth Center
08:28PM 33.2344 -96.7381 250° West 282 325 5,400 -1,080 Descending Fort Worth Center
08:29PM 33.1950 -96.8028 234° Southwest 275 316 5,000 -360 Descending Fort Worth Center
08:30PM 33.1475 -96.8725 231° Southwest 270 311 4,700 -900 Descending Fort Worth Center
08:31PM 33.0956 -96.9472 230° Southwest 280 322 3,300 -1,440 Descending Fort Worth Center